Time;durP1;ratioP1;P1;durP2;ratioP2;P2;SDS_P1;SDS_P2;PMS_P1;PMS_P2;Temp;Humidity;BMP_temperature;BMP_pressure;BME280_temperature;BME280_humidity;BME280_pressure;Samples;Min_cycle;Max_cycle;Signal;HPM_P1;HPM_P2
2022/11/25 00:02:17;;;;;;;8.45;6.15;;;;;;;;;;5101523;28;20016;-73
2022/11/25 00:05:03;;;;;;;9.27;6.07;;;;;;;;;;5115098;28;20019;-71
2022/11/25 00:07:48;;;;;;;9.73;6.72;;;;;;;;;;5100053;28;20038;-73
2022/11/25 00:10:34;;;;;;;8.55;6.53;;;;;;;;;;5115720;28;20070;-72
2022/11/25 00:13:20;;;;;;;7.97;5.97;;;;;;;;;;5115775;28;20034;-73
2022/11/25 00:16:10;;;;;;;10.20;6.50;;;;;;;;;;5115610;28;20026;-72
2022/11/25 00:18:56;;;;;;;10.57;6.97;;;;;;;;;;5114385;28;20455;-73
2022/11/25 00:21:42;;;;;;;9.65;6.60;;;;;;;;;;5115187;28;20020;-71
2022/11/25 00:24:27;;;;;;;10.63;6.75;;;;;;;;;;5101065;28;20043;-72
2022/11/25 00:27:13;;;;;;;10.30;6.60;;;;;;;;;;5114090;28;20432;-73
2022/11/25 00:29:58;;;;;;;11.63;6.97;;;;;;;;;;5115351;28;20176;-72
2022/11/25 00:32:44;;;;;;;11.07;6.60;;;;;;;;;;5115287;28;20053;-71
2022/11/25 00:35:29;;;;;;;9.32;6.57;;;;;;;;;;5114688;28;20027;-72
2022/11/25 00:38:15;;;;;;;10.00;6.43;;;;;;;;;;5115359;28;20387;-73
2022/11/25 00:47:12;;;;;;;10.82;6.38;;;;;;;;;;5115357;28;20027;-73
2022/11/25 00:49:58;;;;;;;10.27;6.57;;;;;;;;;;5101697;28;20012;-73
2022/11/25 00:52:43;;;;;;;8.45;6.05;;;;;;;;;;5115367;28;20039;-72
2022/11/25 00:56:11;;;;;;;10.68;6.68;;;;;;;;;;5114923;28;20098;-74
2022/11/25 00:58:34;;;;;;;9.10;6.50;;;;;;;;;;5116168;28;20015;-72
2022/11/25 01:01:20;;;;;;;9.50;6.80;;;;;;;;;;5114772;28;20470;-73
2022/11/25 01:04:06;;;;;;;9.77;6.78;;;;;;;;;;5116351;28;20114;-72
2022/11/25 01:06:52;;;;;;;9.52;6.93;;;;;;;;;;5114606;28;20074;-72
2022/11/25 01:09:38;;;;;;;10.43;7.03;;;;;;;;;;5114826;28;20051;-73
2022/11/25 01:12:24;;;;;;;8.77;6.60;;;;;;;;;;5114775;28;20270;-72
2022/11/25 01:15:09;;;;;;;9.30;6.78;;;;;;;;;;5114070;28;20088;-72
2022/11/25 01:17:55;;;;;;;8.45;6.70;;;;;;;;;;5113555;28;20034;-73
2022/11/25 01:20:40;;;;;;;9.75;6.95;;;;;;;;;;5101372;28;20023;-72
2022/11/25 01:23:27;;;;;;;7.82;6.05;;;;;;;;;;5114422;28;20024;-71
2022/11/25 01:26:14;;;;;;;8.77;6.43;;;;;;;;;;5115108;28;20019;-72
2022/11/25 01:29:01;;;;;;;8.90;6.45;;;;;;;;;;5101389;28;20329;-73
2022/11/25 01:31:47;;;;;;;9.25;6.63;;;;;;;;;;5100133;28;20051;-73
2022/11/25 01:34:33;;;;;;;7.78;5.97;;;;;;;;;;5115597;28;20020;-72
2022/11/25 01:37:18;;;;;;;8.80;6.13;;;;;;;;;;5113793;28;20100;-72
2022/11/25 01:40:04;;;;;;;9.60;6.22;;;;;;;;;;5114430;28;20020;-71
2022/11/25 01:42:50;;;;;;;9.55;6.45;;;;;;;;;;5115327;28;20440;-73
2022/11/25 01:45:36;;;;;;;7.90;5.75;;;;;;;;;;5115472;28;20039;-72
2022/11/25 01:48:25;;;;;;;8.35;5.97;;;;;;;;;;5114409;28;20039;-73
2022/11/25 01:51:20;;;;;;;9.02;6.40;;;;;;;;;;5113714;28;20116;-73
2022/11/25 01:54:08;;;;;;;6.60;5.10;;;;;;;;;;5114094;28;20020;-73
2022/11/25 01:56:58;;;;;;;8.40;5.43;;;;;;;;;;5114724;28;20316;-72
2022/11/25 01:59:47;;;;;;;7.95;6.13;;;;;;;;;;5099652;28;20015;-73
2022/11/25 02:02:33;;;;;;;7.80;5.70;;;;;;;;;;5115819;28;20037;-74
2022/11/25 02:05:20;;;;;;;8.95;6.10;;;;;;;;;;5100051;28;20100;-73
2022/11/25 02:08:06;;;;;;;7.78;5.97;;;;;;;;;;5114350;28;20019;-72
2022/11/25 02:10:52;;;;;;;9.52;6.78;;;;;;;;;;5099399;28;20038;-72
2022/11/25 02:13:39;;;;;;;9.10;6.07;;;;;;;;;;5117212;28;20015;-73
2022/11/25 02:16:25;;;;;;;8.18;6.18;;;;;;;;;;5115045;28;20039;-72
2022/11/25 02:19:18;;;;;;;7.38;5.72;;;;;;;;;;5113365;28;20091;-72
2022/11/25 02:22:05;;;;;;;8.85;6.28;;;;;;;;;;5114065;28;20020;-72
2022/11/25 02:24:54;;;;;;;9.43;6.35;;;;;;;;;;5114046;28;20031;-74
2022/11/25 02:27:41;;;;;;;8.23;6.20;;;;;;;;;;5113797;28;20062;-73
2022/11/25 02:30:26;;;;;;;8.48;6.22;;;;;;;;;;5116018;28;20031;-73
2022/11/25 02:33:13;;;;;;;8.68;6.65;;;;;;;;;;5102396;28;20128;-73
2022/11/25 02:36:00;;;;;;;9.13;6.32;;;;;;;;;;5118269;28;20020;-73
2022/11/25 02:38:53;;;;;;;9.40;6.90;;;;;;;;;;5118620;28;20020;-73
2022/11/25 02:41:43;;;;;;;8.57;6.45;;;;;;;;;;5118695;28;20080;-73
2022/11/25 02:44:29;;;;;;;10.40;6.75;;;;;;;;;;5117416;28;20020;-73
2022/11/25 02:47:15;;;;;;;9.75;6.55;;;;;;;;;;5118446;28;20027;-73
2022/11/25 02:50:00;;;;;;;9.73;6.95;;;;;;;;;;5117683;28;20115;-72
2022/11/25 02:52:46;;;;;;;9.05;6.30;;;;;;;;;;5119220;28;20450;-73
2022/11/25 02:55:32;;;;;;;11.15;7.38;;;;;;;;;;5116706;28;20470;-73
2022/11/25 02:58:18;;;;;;;10.27;6.95;;;;;;;;;;5116985;28;20030;-73
2022/11/25 03:01:03;;;;;;;8.10;6.28;;;;;;;;;;5116553;28;20064;-74
2022/11/25 03:03:49;;;;;;;8.68;6.80;;;;;;;;;;5116993;28;20102;-74
2022/11/25 03:06:35;;;;;;;11.27;6.93;;;;;;;;;;5116573;28;20444;-73
2022/11/25 03:09:20;;;;;;;11.35;7.07;;;;;;;;;;5116433;28;20031;-73
2022/11/25 03:12:18;;;;;;;11.13;7.47;;;;;;;;;;5117543;28;20073;-72
2022/11/25 03:15:04;;;;;;;9.02;6.88;;;;;;;;;;5117162;28;20103;-74
2022/11/25 03:17:50;;;;;;;9.88;7.18;;;;;;;;;;5116894;28;20019;-73
2022/11/25 03:20:35;;;;;;;10.93;7.15;;;;;;;;;;5116388;28;20016;-72
2022/11/25 03:23:22;;;;;;;10.48;7.95;;;;;;;;;;5116089;28;20035;-72
2022/11/25 03:26:07;;;;;;;10.98;7.88;;;;;;;;;;5116333;28;20083;-72
2022/11/25 03:28:53;;;;;;;11.10;7.47;;;;;;;;;;5102841;28;20100;-73
2022/11/25 03:31:39;;;;;;;11.43;7.60;;;;;;;;;;5116610;28;20081;-73
2022/11/25 03:34:25;;;;;;;10.13;7.53;;;;;;;;;;5103040;28;20024;-73
2022/11/25 03:37:10;;;;;;;10.10;7.35;;;;;;;;;;5116245;28;20063;-73
2022/11/25 03:39:56;;;;;;;10.10;7.05;;;;;;;;;;5116795;28;20039;-73
2022/11/25 03:42:42;;;;;;;9.02;7.28;;;;;;;;;;5115190;28;20168;-73
2022/11/25 03:45:28;;;;;;;13.45;8.35;;;;;;;;;;5116712;28;20066;-72
2022/11/25 03:48:14;;;;;;;9.05;7.10;;;;;;;;;;5116048;28;20024;-72
2022/11/25 03:51:00;;;;;;;11.73;7.88;;;;;;;;;;5116898;28;20030;-73
2022/11/25 03:53:45;;;;;;;11.55;7.90;;;;;;;;;;5116088;28;20080;-73
2022/11/25 03:56:31;;;;;;;10.75;7.47;;;;;;;;;;5117375;28;20080;-72
2022/11/25 03:59:16;;;;;;;10.73;7.40;;;;;;;;;;5101757;28;20054;-73
2022/11/25 04:02:02;;;;;;;12.07;8.38;;;;;;;;;;5116198;28;20016;-73
2022/11/25 04:04:47;;;;;;;11.63;8.18;;;;;;;;;;5116076;28;20016;-73
2022/11/25 04:07:33;;;;;;;11.00;7.72;;;;;;;;;;5115951;28;20023;-73
2022/11/25 04:10:18;;;;;;;12.65;8.00;;;;;;;;;;5115905;28;20116;-73
2022/11/25 04:13:04;;;;;;;11.23;7.97;;;;;;;;;;5115747;28;20458;-73
2022/11/25 04:15:50;;;;;;;10.82;8.27;;;;;;;;;;5116334;28;20028;-73
2022/11/25 04:18:36;;;;;;;10.55;8.13;;;;;;;;;;5116447;28;20023;-72
2022/11/25 04:21:21;;;;;;;13.05;8.32;;;;;;;;;;5115478;28;20051;-73
2022/11/25 04:24:07;;;;;;;12.32;8.65;;;;;;;;;;5115840;28;20333;-73
2022/11/25 04:26:53;;;;;;;12.52;9.13;;;;;;;;;;5115707;28;20020;-73
2022/11/25 04:29:38;;;;;;;10.32;8.13;;;;;;;;;;5115631;28;20073;-72
2022/11/25 04:32:24;;;;;;;11.88;7.85;;;;;;;;;;5116089;28;20015;-73
2022/11/25 04:35:09;;;;;;;10.55;8.00;;;;;;;;;;5115272;28;20020;-73
2022/11/25 04:37:55;;;;;;;12.15;9.15;;;;;;;;;;5114776;28;20356;-73
2022/11/25 04:40:40;;;;;;;12.00;9.05;;;;;;;;;;5101368;28;20070;-73
2022/11/25 04:43:26;;;;;;;13.13;9.25;;;;;;;;;;5115318;28;20055;-73
2022/11/25 04:46:15;;;;;;;12.10;8.73;;;;;;;;;;5115101;28;20359;-73
2022/11/25 04:49:01;;;;;;;12.93;9.02;;;;;;;;;;5114451;28;20020;-74
2022/11/25 04:51:47;;;;;;;11.55;8.95;;;;;;;;;;5101194;28;20016;-73
2022/11/25 04:54:32;;;;;;;13.50;9.82;;;;;;;;;;5115024;28;20023;-74
2022/11/25 04:57:18;;;;;;;12.90;9.25;;;;;;;;;;5114792;28;20030;-74
2022/11/25 05:00:05;;;;;;;13.05;9.95;;;;;;;;;;5115830;28;20393;-74
2022/11/25 05:02:50;;;;;;;13.48;9.80;;;;;;;;;;5115392;28;20023;-74
2022/11/25 05:05:37;;;;;;;14.13;10.50;;;;;;;;;;5116415;28;20078;-74
2022/11/25 05:08:22;;;;;;;15.85;10.35;;;;;;;;;;5101115;28;20409;-74
2022/11/25 05:11:08;;;;;;;15.75;9.80;;;;;;;;;;5100137;28;20400;-73
2022/11/25 05:13:53;;;;;;;14.68;10.00;;;;;;;;;;5102094;28;20030;-74
2022/11/25 05:16:39;;;;;;;13.55;9.68;;;;;;;;;;5115205;28;20027;-74
2022/11/25 05:19:24;;;;;;;14.68;9.88;;;;;;;;;;5100513;28;20023;-73
2022/11/25 05:22:11;;;;;;;16.90;10.65;;;;;;;;;;5114822;28;20027;-74
2022/11/25 05:24:56;;;;;;;14.20;10.50;;;;;;;;;;5115085;28;20024;-75
2022/11/25 05:27:42;;;;;;;16.02;10.35;;;;;;;;;;5101100;28;20435;-74
2022/11/25 05:30:28;;;;;;;15.80;10.23;;;;;;;;;;5099851;28;20027;-74
2022/11/25 05:33:13;;;;;;;13.85;10.65;;;;;;;;;;5115465;28;20423;-75
2022/11/25 05:36:00;;;;;;;15.32;10.50;;;;;;;;;;5100844;28;20105;-75
2022/11/25 05:38:48;;;;;;;16.80;9.63;;;;;;;;;;5115365;28;20085;-73
2022/11/25 05:41:34;;;;;;;13.52;9.70;;;;;;;;;;5114259;28;20347;-73
2022/11/25 05:44:19;;;;;;;15.25;9.95;;;;;;;;;;5114118;28;20445;-74
2022/11/25 05:47:05;;;;;;;13.85;9.77;;;;;;;;;;5099555;28;20111;-74
2022/11/25 05:49:51;;;;;;;15.20;10.10;;;;;;;;;;5099526;28;20035;-74
2022/11/25 05:52:36;;;;;;;14.52;10.65;;;;;;;;;;5114379;28;20020;-74
2022/11/25 05:55:22;;;;;;;18.70;10.65;;;;;;;;;;5113999;28;20019;-74
2022/11/25 05:58:07;;;;;;;15.55;10.30;;;;;;;;;;5100881;28;20380;-74
2022/11/25 06:00:53;;;;;;;17.13;10.07;;;;;;;;;;5113749;28;20108;-74
2022/11/25 06:03:39;;;;;;;17.35;10.00;;;;;;;;;;5114645;28;20023;-74
2022/11/25 06:06:24;;;;;;;13.63;10.18;;;;;;;;;;5114450;28;20027;-75
2022/11/25 06:09:10;;;;;;;13.52;9.95;;;;;;;;;;5113905;28;20030;-74
2022/11/25 06:11:55;;;;;;;13.50;9.77;;;;;;;;;;5114032;28;20011;-74
2022/11/25 06:14:41;;;;;;;16.05;9.50;;;;;;;;;;5114183;28;20445;-74
2022/11/25 06:17:27;;;;;;;17.33;10.30;;;;;;;;;;5113404;28;20028;-74
2022/11/25 06:20:12;;;;;;;14.68;9.50;;;;;;;;;;5114192;28;20078;-74
2022/11/25 06:22:58;;;;;;;15.43;10.68;;;;;;;;;;5113977;28;20016;-74
2022/11/25 06:25:44;;;;;;;16.48;11.20;;;;;;;;;;5100690;28;20015;-72
2022/11/25 06:28:30;;;;;;;15.80;10.23;;;;;;;;;;5100164;28;20106;-73
2022/11/25 06:31:17;;;;;;;17.17;11.80;;;;;;;;;;5114441;28;20020;-74
2022/11/25 06:34:05;;;;;;;14.52;9.90;;;;;;;;;;5114310;28;20332;-75
2022/11/25 06:36:50;;;;;;;20.35;10.77;;;;;;;;;;5113879;28;20056;-73
2022/11/25 06:39:36;;;;;;;15.27;10.73;;;;;;;;;;5100667;28;20091;-75
2022/11/25 06:42:22;;;;;;;19.63;10.52;;;;;;;;;;5113074;28;20031;-74
2022/11/25 06:45:07;;;;;;;18.00;10.20;;;;;;;;;;5113800;28;20442;-74
2022/11/25 06:47:53;;;;;;;15.68;9.95;;;;;;;;;;5114276;28;20038;-74
2022/11/25 06:50:39;;;;;;;15.00;8.77;;;;;;;;;;5112831;28;20115;-75
2022/11/25 06:53:25;;;;;;;13.55;9.32;;;;;;;;;;5113170;28;20027;-74
2022/11/25 06:56:12;;;;;;;15.60;9.57;;;;;;;;;;5112904;28;20359;-74
2022/11/25 06:58:58;;;;;;;14.55;9.85;;;;;;;;;;5113114;28;20015;-73
2022/11/25 07:01:43;;;;;;;12.50;9.27;;;;;;;;;;5098711;28;20016;-73
2022/11/25 07:04:29;;;;;;;12.98;9.48;;;;;;;;;;5112508;28;20023;-72
2022/11/25 07:07:15;;;;;;;15.23;9.02;;;;;;;;;;5111515;28;20030;-74
2022/11/25 07:10:00;;;;;;;13.50;9.25;;;;;;;;;;5112297;28;20031;-74
2022/11/25 07:12:46;;;;;;;13.07;8.73;;;;;;;;;;5112596;28;20020;-73
2022/11/25 07:15:33;;;;;;;14.68;9.57;;;;;;;;;;5099148;28;20011;-73
2022/11/25 07:18:18;;;;;;;16.13;10.07;;;;;;;;;;5116636;28;20011;-73
2022/11/25 07:21:05;;;;;;;13.15;9.60;;;;;;;;;;5103914;28;20012;-74
2022/11/25 07:23:51;;;;;;;13.85;9.48;;;;;;;;;;5116303;28;20102;-73
2022/11/25 07:26:38;;;;;;;62.00;27.83;;;;;;;;;;5117211;28;20085;-72
2022/11/25 07:29:23;;;;;;;15.13;9.40;;;;;;;;;;5117759;28;20065;-73
2022/11/25 07:32:09;;;;;;;15.55;9.52;;;;;;;;;;5117069;28;20062;-73
2022/11/25 07:34:55;;;;;;;13.82;9.40;;;;;;;;;;5117884;28;20461;-73
2022/11/25 07:37:40;;;;;;;16.92;9.40;;;;;;;;;;5102970;28;20094;-72
2022/11/25 07:40:26;;;;;;;16.15;9.95;;;;;;;;;;5116065;28;20012;-74
2022/11/25 07:43:11;;;;;;;15.43;9.95;;;;;;;;;;5116162;28;20444;-73
2022/11/25 07:46:07;;;;;;;12.75;9.57;;;;;;;;;;5117468;28;20447;-73
2022/11/25 07:48:53;;;;;;;14.65;9.55;;;;;;;;;;5102042;28;20501;-73
2022/11/25 07:51:46;;;;;;;17.88;11.10;;;;;;;;;;5117380;28;20012;-73
2022/11/25 07:54:32;;;;;;;16.15;9.50;;;;;;;;;;5101903;28;20053;-73
2022/11/25 07:57:17;;;;;;;14.40;9.60;;;;;;;;;;5117476;28;20031;-74
2022/11/25 08:00:03;;;;;;;14.02;9.73;;;;;;;;;;5115983;28;20440;-74
2022/11/25 08:02:49;;;;;;;13.57;9.63;;;;;;;;;;5116893;28;20050;-74
2022/11/25 08:05:34;;;;;;;14.10;9.27;;;;;;;;;;5117630;28;20016;-75
2022/11/25 08:08:20;;;;;;;13.90;9.25;;;;;;;;;;5115810;28;20047;-74
2022/11/25 08:11:07;;;;;;;12.95;9.27;;;;;;;;;;5101943;28;20035;-75
2022/11/25 08:13:53;;;;;;;13.15;9.68;;;;;;;;;;5104671;28;20019;-73
2022/11/25 08:16:38;;;;;;;15.40;9.32;;;;;;;;;;5117912;28;20019;-76
2022/11/25 08:19:24;;;;;;;13.00;9.05;;;;;;;;;;5115650;28;20031;-75
2022/11/25 08:22:09;;;;;;;13.30;9.63;;;;;;;;;;5115878;28;20027;-74
2022/11/25 08:24:55;;;;;;;17.70;10.52;;;;;;;;;;5101063;28;20448;-75
2022/11/25 08:27:41;;;;;;;18.27;11.40;;;;;;;;;;5102473;28;20034;-74
2022/11/25 08:30:26;;;;;;;18.42;11.82;;;;;;;;;;5114367;28;20024;-74
2022/11/25 08:33:12;;;;;;;14.82;10.55;;;;;;;;;;5116298;28;20023;-75
2022/11/25 08:35:58;;;;;;;14.85;10.30;;;;;;;;;;5115676;28;20436;-75
2022/11/25 08:38:44;;;;;;;18.13;11.23;;;;;;;;;;5100950;28;20320;-75
2022/11/25 08:41:32;;;;;;;17.23;10.10;;;;;;;;;;5100909;28;20028;-76
2022/11/25 08:44:17;;;;;;;13.15;9.10;;;;;;;;;;5100922;28;20406;-74
2022/11/25 08:47:03;;;;;;;13.55;8.60;;;;;;;;;;5115355;28;20019;-75
2022/11/25 08:49:49;;;;;;;13.00;9.30;;;;;;;;;;5115916;28;20026;-74
2022/11/25 08:52:35;;;;;;;13.35;8.75;;;;;;;;;;5115784;28;20027;-73
2022/11/25 08:55:21;;;;;;;13.40;9.07;;;;;;;;;;5115309;28;20023;-74
2022/11/25 08:58:09;;;;;;;13.48;9.07;;;;;;;;;;5115637;28;20364;-75
2022/11/25 09:00:54;;;;;;;12.23;7.88;;;;;;;;;;5116305;28;20066;-73
2022/11/25 09:03:41;;;;;;;12.50;8.95;;;;;;;;;;5116054;28;20023;-75
2022/11/25 09:06:27;;;;;;;13.75;8.45;;;;;;;;;;5115662;28;20027;-72
2022/11/25 09:09:13;;;;;;;15.68;9.60;;;;;;;;;;5114830;28;20062;-74
2022/11/25 09:11:58;;;;;;;14.38;9.05;;;;;;;;;;5115919;28;20008;-74
2022/11/25 09:14:44;;;;;;;12.93;8.15;;;;;;;;;;5101027;28;20073;-73
2022/11/25 09:17:30;;;;;;;17.75;10.15;;;;;;;;;;5114915;28;20055;-74
2022/11/25 09:20:16;;;;;;;21.85;12.10;;;;;;;;;;5115087;28;20027;-74
2022/11/25 09:23:02;;;;;;;16.58;8.77;;;;;;;;;;5114685;28;20080;-76
2022/11/25 09:25:55;;;;;;;19.40;10.80;;;;;;;;;;5115073;28;20023;-74
2022/11/25 09:28:40;;;;;;;15.02;9.02;;;;;;;;;;5115903;28;20115;-75
2022/11/25 09:31:26;;;;;;;13.57;9.18;;;;;;;;;;5115514;28;20466;-74
2022/11/25 09:34:11;;;;;;;10.90;7.95;;;;;;;;;;5115005;28;20020;-74
2022/11/25 09:36:57;;;;;;;14.63;8.98;;;;;;;;;;5099757;28;20508;-75
2022/11/25 09:39:43;;;;;;;12.88;8.70;;;;;;;;;;5114119;28;20020;-74
2022/11/25 09:49:06;;;;;;;14.35;8.77;;;;;;;;;;5114163;28;20400;-74
2022/11/25 09:52:00;;;;;;;11.73;8.15;;;;;;;;;;5114548;28;20336;-73
2022/11/25 09:54:58;;;;;;;11.00;8.30;;;;;;;;;;5114160;28;20034;-73
2022/11/25 09:57:43;;;;;;;12.02;8.55;;;;;;;;;;5113932;28;20019;-74
2022/11/25 10:00:43;;;;;;;11.75;8.23;;;;;;;;;;5100779;28;20035;-72
2022/11/25 10:03:29;;;;;;;12.23;8.82;;;;;;;;;;5098941;28;20012;-75
2022/11/25 10:06:20;;;;;;;12.40;9.60;;;;;;;;;;5114266;28;20501;-73
2022/11/25 10:09:11;;;;;;;12.23;9.50;;;;;;;;;;5100095;28;20069;-75
2022/11/25 10:12:02;;;;;;;22.20;13.70;;;;;;;;;;5085822;28;20496;-73
2022/11/25 10:14:49;;;;;;;25.02;14.68;;;;;;;;;;5114851;28;20066;-74
2022/11/25 10:17:34;;;;;;;11.75;8.40;;;;;;;;;;5114617;28;20412;-74
2022/11/25 10:20:22;;;;;;;13.07;9.95;;;;;;;;;;5100018;28;20440;-74
2022/11/25 10:23:11;;;;;;;16.05;9.52;;;;;;;;;;5113194;28;20035;-74
2022/11/25 10:26:00;;;;;;;15.32;10.57;;;;;;;;;;5115220;28;20031;-75
2022/11/25 10:28:59;;;;;;;14.38;9.35;;;;;;;;;;5100469;28;20019;-75
2022/11/25 10:31:44;;;;;;;12.90;9.10;;;;;;;;;;5114235;28;20087;-75
2022/11/25 10:34:43;;;;;;;14.68;8.80;;;;;;;;;;5113254;28;20016;-74
2022/11/25 10:37:39;;;;;;;12.65;7.97;;;;;;;;;;5113779;28;20122;-74
2022/11/25 10:40:25;;;;;;;20.42;11.30;;;;;;;;;;5091333;28;20019;-73
2022/11/25 10:43:12;;;;;;;17.08;10.30;;;;;;;;;;5113599;28;20046;-73
2022/11/25 10:46:04;;;;;;;14.43;9.55;;;;;;;;;;5115822;28;20463;-75
2022/11/25 10:49:00;;;;;;;17.75;9.45;;;;;;;;;;5113464;28;20039;-73
2022/11/25 10:51:46;;;;;;;13.60;8.85;;;;;;;;;;5117290;28;20020;-77
2022/11/25 10:54:32;;;;;;;14.30;9.02;;;;;;;;;;5118216;28;20012;-76
2022/11/25 10:57:19;;;;;;;11.15;8.13;;;;;;;;;;5117410;28;20043;-75
2022/11/25 11:00:07;;;;;;;16.90;9.85;;;;;;;;;;5102556;28;20019;-76
2022/11/25 11:02:53;;;;;;;12.85;8.93;;;;;;;;;;5104425;28;20476;-75
2022/11/25 11:05:43;;;;;;;12.75;8.73;;;;;;;;;;5118257;28;20023;-75
2022/11/25 11:08:39;;;;;;;12.75;8.43;;;;;;;;;;5103235;28;20023;-75
2022/11/25 11:11:25;;;;;;;10.18;7.85;;;;;;;;;;5102834;28;20028;-76
2022/11/25 11:14:12;;;;;;;13.13;8.68;;;;;;;;;;5106706;28;20081;-74
2022/11/25 11:16:58;;;;;;;11.85;8.68;;;;;;;;;;5122190;28;20019;-74
2022/11/25 11:19:58;;;;;;;14.13;9.50;;;;;;;;;;5117122;28;20337;-75
2022/11/25 11:22:53;;;;;;;10.68;7.82;;;;;;;;;;5118066;28;20470;-76
2022/11/25 11:25:40;;;;;;;14.48;9.88;;;;;;;;;;5118136;28;20019;-75
2022/11/25 11:28:35;;;;;;;13.25;9.50;;;;;;;;;;5121462;28;20020;-75
2022/11/25 11:31:23;;;;;;;14.90;10.45;;;;;;;;;;5117271;28;20031;-76
2022/11/25 11:34:28;;;;;;;13.45;10.02;;;;;;;;;;5103259;28;20047;-76
2022/11/25 11:37:16;;;;;;;16.65;10.13;;;;;;;;;;5117192;28;20050;-75
2022/11/25 11:40:02;;;;;;;14.20;10.43;;;;;;;;;;5103014;28;20020;-76
2022/11/25 11:42:53;;;;;;;14.02;9.90;;;;;;;;;;5116717;28;20019;-76
2022/11/25 11:45:58;;;;;;;12.88;9.98;;;;;;;;;;5102863;28;20024;-76
2022/11/25 11:48:43;;;;;;;16.38;10.13;;;;;;;;;;5116780;28;20036;-75
2022/11/25 11:51:49;;;;;;;14.88;10.48;;;;;;;;;;5117072;28;20447;-74
2022/11/25 11:54:39;;;;;;;12.68;10.18;;;;;;;;;;5117188;28;20019;-76
2022/11/25 11:57:24;;;;;;;13.52;9.65;;;;;;;;;;5102879;28;20038;-75
2022/11/25 12:00:14;;;;;;;18.15;10.60;;;;;;;;;;5116007;28;20028;-75
2022/11/25 12:03:00;;;;;;;12.80;9.15;;;;;;;;;;5115615;28;20028;-75
2022/11/25 12:05:46;;;;;;;11.95;9.00;;;;;;;;;;5116859;28;20024;-75
2022/11/25 12:08:58;;;;;;;14.15;10.02;;;;;;;;;;5116777;28;20454;-76
2022/11/25 12:11:54;;;;;;;14.07;10.48;;;;;;;;;;5102823;28;20390;-75
2022/11/25 12:14:48;;;;;;;15.30;10.95;;;;;;;;;;5117015;28;20039;-75
2022/11/25 12:17:43;;;;;;;15.48;10.70;;;;;;;;;;5116383;28;20073;-75
2022/11/25 12:20:41;;;;;;;20.13;11.32;;;;;;;;;;5116460;28;20348;-74
2022/11/25 12:23:36;;;;;;;17.17;12.25;;;;;;;;;;5116891;28;20461;-74
2022/11/25 12:26:42;;;;;;;14.30;10.90;;;;;;;;;;5102672;28;20019;-75
2022/11/25 12:29:36;;;;;;;14.32;10.68;;;;;;;;;;5064889;28;20059;-76
2022/11/25 12:32:32;;;;;;;15.73;10.07;;;;;;;;;;5116468;28;20015;-76
2022/11/25 12:35:36;;;;;;;15.40;10.75;;;;;;;;;;5116822;28;20008;-75
2022/11/25 12:38:41;;;;;;;13.63;10.32;;;;;;;;;;5101691;28;20466;-76
2022/11/25 12:41:26;;;;;;;15.45;10.45;;;;;;;;;;5101756;28;20015;-75
2022/11/25 12:44:27;;;;;;;15.30;10.30;;;;;;;;;;5114876;28;20035;-76
2022/11/25 12:47:12;;;;;;;16.20;10.25;;;;;;;;;;5102013;28;20035;-75
2022/11/25 12:49:58;;;;;;;14.45;10.23;;;;;;;;;;5101458;28;20376;-75
2022/11/25 12:52:52;;;;;;;18.73;11.02;;;;;;;;;;5100798;28;20062;-75
2022/11/25 12:55:39;;;;;;;16.42;10.57;;;;;;;;;;5116370;28;20019;-75
2022/11/25 12:58:33;;;;;;;15.73;10.02;;;;;;;;;;5115795;28;20123;-75
2022/11/25 13:01:37;;;;;;;14.73;10.93;;;;;;;;;;5115173;28;20505;-74
2022/11/25 13:04:32;;;;;;;17.08;10.63;;;;;;;;;;5115617;28;20039;-74
2022/11/25 13:07:24;;;;;;;16.77;11.68;;;;;;;;;;5114640;28;20023;-74
2022/11/25 13:10:28;;;;;;;16.10;11.80;;;;;;;;;;5100945;28;20030;-76
2022/11/25 13:13:14;;;;;;;17.65;11.80;;;;;;;;;;5115401;28;20034;-75
2022/11/25 13:16:00;;;;;;;20.88;13.02;;;;;;;;;;5101922;28;20410;-75
2022/11/25 13:18:46;;;;;;;24.88;14.20;;;;;;;;;;5115321;28;20027;-74
2022/11/25 13:21:32;;;;;;;21.90;14.02;;;;;;;;;;5100903;28;20020;-75
2022/11/25 13:24:31;;;;;;;22.70;14.55;;;;;;;;;;5114788;28;20027;-74
2022/11/25 13:27:32;;;;;;;22.58;14.25;;;;;;;;;;5115160;28;20509;-73
2022/11/25 13:30:33;;;;;;;23.80;14.70;;;;;;;;;;5114914;28;20034;-74
2022/11/25 13:33:24;;;;;;;21.65;13.80;;;;;;;;;;5114944;28;20031;-74
2022/11/25 13:36:16;;;;;;;23.65;13.48;;;;;;;;;;5114258;28;20050;-73
2022/11/25 13:39:03;;;;;;;23.17;13.93;;;;;;;;;;5100602;28;20027;-73
2022/11/25 13:41:57;;;;;;;22.50;14.88;;;;;;;;;;5115156;28;20032;-73
2022/11/25 13:44:59;;;;;;;21.20;13.60;;;;;;;;;;5114923;28;20019;-73
2022/11/25 13:47:47;;;;;;;20.88;13.35;;;;;;;;;;5100622;28;20047;-74
2022/11/25 13:50:32;;;;;;;23.38;12.43;;;;;;;;;;5114024;28;20123;-74
2022/11/25 13:53:20;;;;;;;20.23;12.60;;;;;;;;;;5114515;28;20332;-74
2022/11/25 13:56:12;;;;;;;21.63;13.07;;;;;;;;;;5100807;28;20392;-74
2022/11/25 13:59:09;;;;;;;20.52;13.18;;;;;;;;;;5114416;28;20020;-72
2022/11/25 14:02:15;;;;;;;23.40;12.65;;;;;;;;;;5100813;28;20020;-74
2022/11/25 14:05:14;;;;;;;20.15;12.73;;;;;;;;;;5114507;28;20020;-75
2022/11/25 14:08:06;;;;;;;20.85;12.95;;;;;;;;;;5114526;28;20301;-74
2022/11/25 14:11:12;;;;;;;20.42;13.27;;;;;;;;;;5113818;28;20469;-74
2022/11/25 14:14:04;;;;;;;25.70;14.32;;;;;;;;;;5079735;28;20038;-72
2022/11/25 14:17:08;;;;;;;22.17;13.13;;;;;;;;;;5114617;28;20034;-74
2022/11/25 14:19:53;;;;;;;19.83;12.90;;;;;;;;;;5114438;28;20016;-72
2022/11/25 14:23:02;;;;;;;19.65;12.45;;;;;;;;;;5114271;28;20039;-72
2022/11/25 14:25:52;;;;;;;20.67;13.07;;;;;;;;;;5115785;28;20352;-73
2022/11/25 14:28:43;;;;;;;21.38;12.88;;;;;;;;;;5118429;28;20016;-72
2022/11/25 14:31:36;;;;;;;22.75;12.15;;;;;;;;;;5104072;28;20028;-72
2022/11/25 14:34:21;;;;;;;19.20;12.18;;;;;;;;;;5118566;28;20011;-73
2022/11/25 14:37:12;;;;;;;22.80;12.52;;;;;;;;;;5104259;28;20040;-73
2022/11/25 14:40:00;;;;;;;20.05;13.10;;;;;;;;;;5118533;28;20038;-69
2022/11/25 14:42:49;;;;;;;19.75;13.00;;;;;;;;;;5118319;28;20015;-73
2022/11/25 14:45:35;;;;;;;19.88;12.70;;;;;;;;;;5104677;28;20344;-73
2022/11/25 14:48:24;;;;;;;18.75;12.10;;;;;;;;;;5104405;28;20023;-73
2022/11/25 14:51:15;;;;;;;25.50;14.45;;;;;;;;;;5118873;28;20084;-73
2022/11/25 14:54:01;;;;;;;27.77;16.33;;;;;;;;;;5118089;28;20378;-73
2022/11/25 14:56:47;;;;;;;32.95;17.52;;;;;;;;;;5118062;28;20359;-72
2022/11/25 14:59:33;;;;;;;27.25;16.35;;;;;;;;;;5118130;28;20023;-72
2022/11/25 15:02:24;;;;;;;26.13;15.48;;;;;;;;;;5103838;28;20019;-73
2022/11/25 15:05:09;;;;;;;24.58;15.50;;;;;;;;;;5119451;28;20084;-72
2022/11/25 15:08:07;;;;;;;28.85;16.95;;;;;;;;;;5112468;28;20035;-73
2022/11/25 15:10:58;;;;;;;32.08;18.05;;;;;;;;;;5117974;28;20031;-73
2022/11/25 15:13:48;;;;;;;30.88;18.52;;;;;;;;;;5118084;28;20015;-72
2022/11/25 15:16:35;;;;;;;32.13;18.50;;;;;;;;;;5118851;28;20437;-73
2022/11/25 15:19:23;;;;;;;28.75;17.23;;;;;;;;;;5119223;28;20064;-73
2022/11/25 15:22:14;;;;;;;28.95;16.05;;;;;;;;;;5125056;28;20016;-73
2022/11/25 15:25:08;;;;;;;26.98;16.00;;;;;;;;;;5128789;28;20020;-72
2022/11/25 15:27:53;;;;;;;24.73;15.50;;;;;;;;;;5127215;28;20080;-73
2022/11/25 15:30:39;;;;;;;27.95;15.90;;;;;;;;;;5121141;28;20466;-73
2022/11/25 15:33:26;;;;;;;27.70;16.10;;;;;;;;;;5117795;28;20015;-72
2022/11/25 15:36:11;;;;;;;30.48;15.57;;;;;;;;;;5117187;28;20039;-73
2022/11/25 15:39:16;;;;;;;35.95;18.23;;;;;;;;;;5107203;28;20100;-72
2022/11/25 15:42:22;;;;;;;29.88;16.25;;;;;;;;;;5124036;28;20016;-72
2022/11/25 15:45:16;;;;;;;31.05;16.92;;;;;;;;;;5110724;28;20077;-71
2022/11/25 15:48:02;;;;;;;30.95;17.83;;;;;;;;;;5126422;28;20030;-72
2022/11/25 15:50:48;;;;;;;44.08;21.08;;;;;;;;;;5136316;28;20479;-71
2022/11/25 15:53:35;;;;;;;28.60;16.20;;;;;;;;;;5134299;28;20082;-72
2022/11/25 15:56:22;;;;;;;30.67;17.70;;;;;;;;;;5121545;28;20066;-74
2022/11/25 15:59:27;;;;;;;34.13;18.55;;;;;;;;;;5136456;28;20004;-72
2022/11/25 16:02:30;;;;;;;30.08;17.63;;;;;;;;;;5136830;28;20004;-72
2022/11/25 16:05:22;;;;;;;30.20;17.40;;;;;;;;;;5128832;28;20020;-76
2022/11/25 16:08:16;;;;;;;31.48;18.65;;;;;;;;;;5133849;28;20035;-73
2022/11/25 16:11:32;;;;;;;32.45;19.23;;;;;;;;;;5123871;28;20412;-72
2022/11/25 16:14:24;;;;;;;34.58;18.55;;;;;;;;;;5120258;27;20363;-75
2022/11/25 16:17:10;;;;;;;34.83;19.38;;;;;;;;;;5103675;28;20421;-73
2022/11/25 16:19:56;;;;;;;33.00;18.70;;;;;;;;;;5118402;28;20020;-73
2022/11/25 16:22:42;;;;;;;32.90;19.10;;;;;;;;;;5117877;28;20051;-73
2022/11/25 16:25:27;;;;;;;30.55;18.65;;;;;;;;;;5118308;28;20027;-74
2022/11/25 16:28:20;;;;;;;34.17;18.95;;;;;;;;;;5117897;28;20019;-75
2022/11/25 16:31:09;;;;;;;34.47;18.20;;;;;;;;;;5133197;28;20355;-73
2022/11/25 16:33:57;;;;;;;30.70;17.35;;;;;;;;;;5137727;28;20038;-75
2022/11/25 16:36:43;;;;;;;35.00;18.70;;;;;;;;;;5138056;28;20027;-75
2022/11/25 16:39:28;;;;;;;29.83;18.15;;;;;;;;;;5138482;28;20026;-73
2022/11/25 16:42:23;;;;;;;29.90;17.88;;;;;;;;;;5138896;28;20021;-74
2022/11/25 16:45:16;;;;;;;35.65;20.13;;;;;;;;;;5137407;28;20012;-74